sensor_id;sensor_type;location;lat;lon;timestamp;P1;durP1;ratioP1;P2;durP2;ratioP2
28774;SDS011;15926;51.348;6.596;2023-04-03T00:01:34;4.03;;;3.63;;
28774;SDS011;15926;51.348;6.596;2023-04-03T00:04:03;5.33;;;3.90;;
28774;SDS011;15926;51.348;6.596;2023-04-03T00:06:29;5.82;;;4.15;;
28774;SDS011;15926;51.348;6.596;2023-04-03T00:08:55;4.85;;;4.20;;
28774;SDS011;15926;51.348;6.596;2023-04-03T00:11:21;5.88;;;4.00;;
28774;SDS011;15926;51.348;6.596;2023-04-03T00:13:47;6.05;;;4.15;;
28774;SDS011;15926;51.348;6.596;2023-04-03T00:16:13;4.97;;;4.15;;
28774;SDS011;15926;51.348;6.596;2023-04-03T00:18:39;6.00;;;4.45;;
28774;SDS011;15926;51.348;6.596;2023-04-03T00:21:05;8.15;;;4.20;;
28774;SDS011;15926;51.348;6.596;2023-04-03T00:23:33;6.47;;;4.07;;
28774;SDS011;15926;51.348;6.596;2023-04-03T00:25:59;5.93;;;4.70;;
28774;SDS011;15926;51.348;6.596;2023-04-03T00:28:26;6.70;;;4.72;;
28774;SDS011;15926;51.348;6.596;2023-04-03T00:30:52;7.78;;;4.85;;
28774;SDS011;15926;51.348;6.596;2023-04-03T00:33:18;8.70;;;5.45;;
28774;SDS011;15926;51.348;6.596;2023-04-03T00:35:49;7.65;;;4.63;;
28774;SDS011;15926;51.348;6.596;2023-04-03T00:38:15;6.68;;;4.43;;
28774;SDS011;15926;51.348;6.596;2023-04-03T00:40:42;6.80;;;5.13;;
28774;SDS011;15926;51.348;6.596;2023-04-03T00:43:11;7.25;;;4.75;;
28774;SDS011;15926;51.348;6.596;2023-04-03T00:45:39;8.85;;;5.47;;
28774;SDS011;15926;51.348;6.596;2023-04-03T00:48:06;8.70;;;5.65;;
28774;SDS011;15926;51.348;6.596;2023-04-03T00:50:34;11.88;;;5.22;;
28774;SDS011;15926;51.348;6.596;2023-04-03T00:53:01;9.95;;;5.10;;
28774;SDS011;15926;51.348;6.596;2023-04-03T00:55:27;7.85;;;5.90;;
28774;SDS011;15926;51.348;6.596;2023-04-03T00:57:53;7.70;;;5.47;;
28774;SDS011;15926;51.348;6.596;2023-04-03T01:00:21;9.48;;;6.47;;
28774;SDS011;15926;51.348;6.596;2023-04-03T01:02:48;7.72;;;6.20;;
28774;SDS011;15926;51.348;6.596;2023-04-03T01:05:14;8.98;;;5.82;;
28774;SDS011;15926;51.348;6.596;2023-04-03T01:07:40;9.27;;;5.80;;
28774;SDS011;15926;51.348;6.596;2023-04-03T01:10:08;10.70;;;6.70;;
28774;SDS011;15926;51.348;6.596;2023-04-03T01:12:35;9.20;;;5.90;;
28774;SDS011;15926;51.348;6.596;2023-04-03T01:15:09;7.32;;;5.43;;
28774;SDS011;15926;51.348;6.596;2023-04-03T01:17:37;6.82;;;5.65;;
28774;SDS011;15926;51.348;6.596;2023-04-03T01:25:15;8.85;;;5.47;;
28774;SDS011;15926;51.348;6.596;2023-04-03T01:27:41;6.30;;;5.43;;
28774;SDS011;15926;51.348;6.596;2023-04-03T01:30:07;7.53;;;5.72;;
28774;SDS011;15926;51.348;6.596;2023-04-03T01:32:33;8.55;;;5.72;;
28774;SDS011;15926;51.348;6.596;2023-04-03T01:34:59;8.60;;;5.63;;
28774;SDS011;15926;51.348;6.596;2023-04-03T01:37:25;10.57;;;5.78;;
28774;SDS011;15926;51.348;6.596;2023-04-03T01:39:51;7.80;;;5.82;;
28774;SDS011;15926;51.348;6.596;2023-04-03T01:42:17;8.38;;;5.30;;
28774;SDS011;15926;51.348;6.596;2023-04-03T01:44:43;8.27;;;5.85;;
28774;SDS011;15926;51.348;6.596;2023-04-03T01:47:10;10.23;;;6.25;;
28774;SDS011;15926;51.348;6.596;2023-04-03T01:49:36;9.98;;;6.03;;
28774;SDS011;15926;51.348;6.596;2023-04-03T01:52:02;9.63;;;6.25;;
28774;SDS011;15926;51.348;6.596;2023-04-03T01:54:28;8.45;;;5.75;;
28774;SDS011;15926;51.348;6.596;2023-04-03T01:56:54;9.70;;;6.43;;
28774;SDS011;15926;51.348;6.596;2023-04-03T01:59:20;9.80;;;6.18;;
28774;SDS011;15926;51.348;6.596;2023-04-03T02:01:46;9.05;;;6.68;;
28774;SDS011;15926;51.348;6.596;2023-04-03T02:04:12;11.13;;;6.75;;
28774;SDS011;15926;51.348;6.596;2023-04-03T02:06:38;10.63;;;7.05;;
28774;SDS011;15926;51.348;6.596;2023-04-03T02:09:04;13.32;;;7.07;;
28774;SDS011;15926;51.348;6.596;2023-04-03T02:11:31;16.02;;;7.30;;
28774;SDS011;15926;51.348;6.596;2023-04-03T02:13:57;12.90;;;7.00;;
28774;SDS011;15926;51.348;6.596;2023-04-03T02:16:23;10.95;;;7.03;;
28774;SDS011;15926;51.348;6.596;2023-04-03T02:18:49;8.05;;;6.55;;
28774;SDS011;15926;51.348;6.596;2023-04-03T02:21:15;15.45;;;7.85;;
28774;SDS011;15926;51.348;6.596;2023-04-03T02:23:41;11.98;;;6.93;;
28774;SDS011;15926;51.348;6.596;2023-04-03T02:26:11;10.85;;;5.95;;
28774;SDS011;15926;51.348;6.596;2023-04-03T02:28:37;10.52;;;5.85;;
28774;SDS011;15926;51.348;6.596;2023-04-03T02:31:03;9.80;;;4.72;;
28774;SDS011;15926;51.348;6.596;2023-04-03T02:33:31;13.07;;;5.38;;
28774;SDS011;15926;51.348;6.596;2023-04-03T02:35:57;8.20;;;4.43;;
28774;SDS011;15926;51.348;6.596;2023-04-03T02:38:24;7.85;;;4.38;;
28774;SDS011;15926;51.348;6.596;2023-04-03T02:40:50;6.85;;;4.28;;
28774;SDS011;15926;51.348;6.596;2023-04-03T02:43:17;9.00;;;4.03;;
28774;SDS011;15926;51.348;6.596;2023-04-03T02:45:43;8.75;;;4.07;;
28774;SDS011;15926;51.348;6.596;2023-04-03T02:48:09;10.95;;;4.38;;
28774;SDS011;15926;51.348;6.596;2023-04-03T02:50:35;5.82;;;3.65;;
28774;SDS011;15926;51.348;6.596;2023-04-03T02:53:01;5.72;;;3.72;;
28774;SDS011;15926;51.348;6.596;2023-04-03T02:55:27;5.72;;;3.65;;
28774;SDS011;15926;51.348;6.596;2023-04-03T02:57:53;6.32;;;3.65;;
28774;SDS011;15926;51.348;6.596;2023-04-03T03:00:19;5.47;;;4.10;;
28774;SDS011;15926;51.348;6.596;2023-04-03T03:02:45;4.78;;;3.50;;
28774;SDS011;15926;51.348;6.596;2023-04-03T03:05:11;6.80;;;3.60;;
28774;SDS011;15926;51.348;6.596;2023-04-03T03:07:37;7.07;;;3.70;;
28774;SDS011;15926;51.348;6.596;2023-04-03T03:10:03;7.00;;;3.50;;
28774;SDS011;15926;51.348;6.596;2023-04-03T03:12:29;5.47;;;3.50;;
28774;SDS011;15926;51.348;6.596;2023-04-03T03:14:55;5.40;;;3.00;;
28774;SDS011;15926;51.348;6.596;2023-04-03T03:17:21;6.45;;;3.35;;
28774;SDS011;15926;51.348;6.596;2023-04-03T03:19:47;12.85;;;3.17;;
28774;SDS011;15926;51.348;6.596;2023-04-03T03:22:13;10.43;;;2.75;;
28774;SDS011;15926;51.348;6.596;2023-04-03T03:24:39;5.72;;;2.67;;
28774;SDS011;15926;51.348;6.596;2023-04-03T03:27:05;5.30;;;3.00;;
28774;SDS011;15926;51.348;6.596;2023-04-03T03:29:31;3.42;;;2.95;;
28774;SDS011;15926;51.348;6.596;2023-04-03T03:31:57;6.82;;;2.80;;
28774;SDS011;15926;51.348;6.596;2023-04-03T03:34:23;5.10;;;2.75;;
28774;SDS011;15926;51.348;6.596;2023-04-03T03:36:49;5.13;;;3.15;;
28774;SDS011;15926;51.348;6.596;2023-04-03T03:39:15;3.88;;;2.22;;
28774;SDS011;15926;51.348;6.596;2023-04-03T03:41:41;4.22;;;2.40;;
28774;SDS011;15926;51.348;6.596;2023-04-03T03:44:07;4.10;;;2.20;;
28774;SDS011;15926;51.348;6.596;2023-04-03T03:46:33;5.45;;;2.30;;
28774;SDS011;15926;51.348;6.596;2023-04-03T03:48:59;4.30;;;2.42;;
28774;SDS011;15926;51.348;6.596;2023-04-03T03:51:25;4.18;;;2.17;;
28774;SDS011;15926;51.348;6.596;2023-04-03T03:53:51;6.90;;;2.20;;
28774;SDS011;15926;51.348;6.596;2023-04-03T03:56:17;4.53;;;2.25;;
28774;SDS011;15926;51.348;6.596;2023-04-03T03:58:43;5.00;;;2.33;;
28774;SDS011;15926;51.348;6.596;2023-04-03T04:01:09;4.03;;;2.03;;
28774;SDS011;15926;51.348;6.596;2023-04-03T04:03:35;2.58;;;2.33;;
28774;SDS011;15926;51.348;6.596;2023-04-03T04:06:02;7.65;;;2.05;;
28774;SDS011;15926;51.348;6.596;2023-04-03T04:08:28;3.00;;;2.25;;
28774;SDS011;15926;51.348;6.596;2023-04-03T04:10:54;5.50;;;2.00;;
28774;SDS011;15926;51.348;6.596;2023-04-03T04:13:20;7.03;;;2.00;;
28774;SDS011;15926;51.348;6.596;2023-04-03T04:15:46;5.97;;;1.45;;
28774;SDS011;15926;51.348;6.596;2023-04-03T04:18:12;3.88;;;2.22;;
28774;SDS011;15926;51.348;6.596;2023-04-03T04:20:38;6.13;;;2.03;;
28774;SDS011;15926;51.348;6.596;2023-04-03T04:23:04;4.43;;;1.90;;
28774;SDS011;15926;51.348;6.596;2023-04-03T04:25:30;2.85;;;1.50;;
28774;SDS011;15926;51.348;6.596;2023-04-03T04:27:56;3.58;;;1.73;;
28774;SDS011;15926;51.348;6.596;2023-04-03T04:30:22;6.00;;;2.00;;
28774;SDS011;15926;51.348;6.596;2023-04-03T04:32:48;5.10;;;1.90;;
28774;SDS011;15926;51.348;6.596;2023-04-03T04:35:14;2.65;;;1.50;;
28774;SDS011;15926;51.348;6.596;2023-04-03T04:37:40;5.10;;;1.88;;
28774;SDS011;15926;51.348;6.596;2023-04-03T04:40:06;4.43;;;1.75;;
28774;SDS011;15926;51.348;6.596;2023-04-03T04:42:32;4.68;;;1.60;;
28774;SDS011;15926;51.348;6.596;2023-04-03T04:44:58;5.28;;;2.10;;
28774;SDS011;15926;51.348;6.596;2023-04-03T04:47:25;4.82;;;1.70;;
28774;SDS011;15926;51.348;6.596;2023-04-03T04:49:51;7.63;;;2.00;;
28774;SDS011;15926;51.348;6.596;2023-04-03T04:52:17;5.70;;;1.83;;
28774;SDS011;15926;51.348;6.596;2023-04-03T04:54:43;6.90;;;1.92;;
28774;SDS011;15926;51.348;6.596;2023-04-03T04:57:08;2.63;;;1.73;;
28774;SDS011;15926;51.348;6.596;2023-04-03T04:59:35;15.43;;;2.42;;
28774;SDS011;15926;51.348;6.596;2023-04-03T05:02:01;5.80;;;1.73;;
28774;SDS011;15926;51.348;6.596;2023-04-03T05:04:27;6.40;;;1.92;;
28774;SDS011;15926;51.348;6.596;2023-04-03T05:06:53;3.13;;;1.77;;
28774;SDS011;15926;51.348;6.596;2023-04-03T05:09:19;4.35;;;1.55;;
28774;SDS011;15926;51.348;6.596;2023-04-03T05:11:45;5.43;;;1.50;;
28774;SDS011;15926;51.348;6.596;2023-04-03T05:14:12;8.18;;;2.10;;
28774;SDS011;15926;51.348;6.596;2023-04-03T05:16:38;6.53;;;1.88;;
28774;SDS011;15926;51.348;6.596;2023-04-03T05:19:04;6.47;;;2.13;;
28774;SDS011;15926;51.348;6.596;2023-04-03T05:21:30;3.03;;;1.60;;
28774;SDS011;15926;51.348;6.596;2023-04-03T05:24:00;5.30;;;1.75;;
28774;SDS011;15926;51.348;6.596;2023-04-03T05:26:28;6.53;;;1.90;;
28774;SDS011;15926;51.348;6.596;2023-04-03T05:28:54;5.35;;;2.25;;
28774;SDS011;15926;51.348;6.596;2023-04-03T05:31:20;3.85;;;1.77;;
28774;SDS011;15926;51.348;6.596;2023-04-03T05:33:46;3.33;;;1.35;;
28774;SDS011;15926;51.348;6.596;2023-04-03T05:36:12;4.25;;;1.50;;
28774;SDS011;15926;51.348;6.596;2023-04-03T05:38:39;4.70;;;1.35;;
28774;SDS011;15926;51.348;6.596;2023-04-03T05:41:05;5.78;;;2.28;;
28774;SDS011;15926;51.348;6.596;2023-04-03T05:43:31;4.28;;;1.63;;
28774;SDS011;15926;51.348;6.596;2023-04-03T05:45:58;6.75;;;1.63;;
28774;SDS011;15926;51.348;6.596;2023-04-03T05:48:24;3.65;;;1.60;;
28774;SDS011;15926;51.348;6.596;2023-04-03T05:50:50;4.65;;;1.70;;
28774;SDS011;15926;51.348;6.596;2023-04-03T05:53:25;4.15;;;1.27;;
28774;SDS011;15926;51.348;6.596;2023-04-03T05:55:52;4.18;;;1.30;;
28774;SDS011;15926;51.348;6.596;2023-04-03T05:58:18;4.40;;;1.77;;
28774;SDS011;15926;51.348;6.596;2023-04-03T06:00:44;3.42;;;1.50;;
28774;SDS011;15926;51.348;6.596;2023-04-03T06:03:11;9.45;;;1.95;;
28774;SDS011;15926;51.348;6.596;2023-04-03T06:05:37;4.28;;;1.98;;
28774;SDS011;15926;51.348;6.596;2023-04-03T06:08:03;2.90;;;1.70;;
28774;SDS011;15926;51.348;6.596;2023-04-03T06:10:29;1.63;;;1.33;;
28774;SDS011;15926;51.348;6.596;2023-04-03T06:12:55;6.10;;;1.52;;
28774;SDS011;15926;51.348;6.596;2023-04-03T06:15:21;4.03;;;1.88;;
28774;SDS011;15926;51.348;6.596;2023-04-03T06:17:47;5.00;;;2.50;;
28774;SDS011;15926;51.348;6.596;2023-04-03T06:20:13;6.10;;;2.13;;
28774;SDS011;15926;51.348;6.596;2023-04-03T06:22:39;4.38;;;1.63;;
28774;SDS011;15926;51.348;6.596;2023-04-03T06:25:06;4.57;;;1.92;;
28774;SDS011;15926;51.348;6.596;2023-04-03T06:27:33;5.97;;;1.60;;
28774;SDS011;15926;51.348;6.596;2023-04-03T06:29:59;4.85;;;1.27;;
28774;SDS011;15926;51.348;6.596;2023-04-03T06:32:25;6.30;;;2.08;;
28774;SDS011;15926;51.348;6.596;2023-04-03T06:34:51;3.50;;;1.65;;
28774;SDS011;15926;51.348;6.596;2023-04-03T06:37:19;3.13;;;1.40;;
28774;SDS011;15926;51.348;6.596;2023-04-03T06:39:45;5.05;;;2.15;;
28774;SDS011;15926;51.348;6.596;2023-04-03T06:42:11;5.68;;;1.85;;
28774;SDS011;15926;51.348;6.596;2023-04-03T06:44:38;4.22;;;1.60;;
28774;SDS011;15926;51.348;6.596;2023-04-03T06:47:04;4.22;;;2.20;;
28774;SDS011;15926;51.348;6.596;2023-04-03T06:49:30;5.80;;;1.77;;
28774;SDS011;15926;51.348;6.596;2023-04-03T06:51:57;4.07;;;1.73;;
28774;SDS011;15926;51.348;6.596;2023-04-03T06:54:23;4.20;;;2.30;;
28774;SDS011;15926;51.348;6.596;2023-04-03T06:56:49;3.30;;;1.70;;
28774;SDS011;15926;51.348;6.596;2023-04-03T06:59:15;6.18;;;2.40;;
28774;SDS011;15926;51.348;6.596;2023-04-03T07:01:42;4.95;;;2.13;;
28774;SDS011;15926;51.348;6.596;2023-04-03T07:04:08;4.95;;;2.30;;
28774;SDS011;15926;51.348;6.596;2023-04-03T07:06:34;4.60;;;1.92;;
28774;SDS011;15926;51.348;6.596;2023-04-03T07:09:00;4.03;;;1.73;;
28774;SDS011;15926;51.348;6.596;2023-04-03T07:11:27;2.60;;;1.75;;
28774;SDS011;15926;51.348;6.596;2023-04-03T07:13:53;5.18;;;2.00;;
28774;SDS011;15926;51.348;6.596;2023-04-03T07:16:19;3.33;;;2.30;;
28774;SDS011;15926;51.348;6.596;2023-04-03T07:18:45;4.22;;;2.03;;
28774;SDS011;15926;51.348;6.596;2023-04-03T07:21:12;2.65;;;2.03;;
28774;SDS011;15926;51.348;6.596;2023-04-03T07:23:38;3.55;;;1.30;;
28774;SDS011;15926;51.348;6.596;2023-04-03T07:26:04;4.25;;;1.83;;
28774;SDS011;15926;51.348;6.596;2023-04-03T07:28:31;6.18;;;1.92;;
28774;SDS011;15926;51.348;6.596;2023-04-03T07:31:02;5.55;;;2.42;;
28774;SDS011;15926;51.348;6.596;2023-04-03T07:33:29;4.53;;;2.10;;
28774;SDS011;15926;51.348;6.596;2023-04-03T07:41:00;6.27;;;2.00;;
28774;SDS011;15926;51.348;6.596;2023-04-03T07:43:26;5.40;;;1.67;;
28774;SDS011;15926;51.348;6.596;2023-04-03T07:45:52;3.67;;;1.63;;
28774;SDS011;15926;51.348;6.596;2023-04-03T07:48:22;5.18;;;1.33;;
28774;SDS011;15926;51.348;6.596;2023-04-03T07:50:49;4.65;;;1.52;;
28774;SDS011;15926;51.348;6.596;2023-04-03T07:53:15;3.97;;;1.85;;
28774;SDS011;15926;51.348;6.596;2023-04-03T07:55:41;4.15;;;1.83;;
28774;SDS011;15926;51.348;6.596;2023-04-03T07:58:10;2.47;;;1.20;;
28774;SDS011;15926;51.348;6.596;2023-04-03T08:00:37;4.93;;;1.90;;
28774;SDS011;15926;51.348;6.596;2023-04-03T08:03:03;6.80;;;1.95;;
28774;SDS011;15926;51.348;6.596;2023-04-03T08:05:30;3.75;;;1.40;;
28774;SDS011;15926;51.348;6.596;2023-04-03T08:07:56;4.60;;;1.90;;
28774;SDS011;15926;51.348;6.596;2023-04-03T08:10:22;4.00;;;1.55;;
28774;SDS011;15926;51.348;6.596;2023-04-03T08:12:48;5.18;;;1.65;;
28774;SDS011;15926;51.348;6.596;2023-04-03T08:15:14;4.85;;;1.40;;
28774;SDS011;15926;51.348;6.596;2023-04-03T08:17:41;4.20;;;1.65;;
28774;SDS011;15926;51.348;6.596;2023-04-03T08:20:07;2.83;;;1.60;;
28774;SDS011;15926;51.348;6.596;2023-04-03T08:22:33;1.67;;;1.02;;
28774;SDS011;15926;51.348;6.596;2023-04-03T08:25:00;1.83;;;1.20;;
28774;SDS011;15926;51.348;6.596;2023-04-03T08:27:26;4.15;;;1.63;;
28774;SDS011;15926;51.348;6.596;2023-04-03T08:29:53;4.40;;;2.00;;
28774;SDS011;15926;51.348;6.596;2023-04-03T08:32:19;5.55;;;1.80;;
28774;SDS011;15926;51.348;6.596;2023-04-03T08:34:45;5.97;;;1.58;;
28774;SDS011;15926;51.348;6.596;2023-04-03T08:37:11;7.47;;;1.27;;
28774;SDS011;15926;51.348;6.596;2023-04-03T08:39:37;2.15;;;1.65;;
28774;SDS011;15926;51.348;6.596;2023-04-03T08:42:05;2.13;;;1.20;;
28774;SDS011;15926;51.348;6.596;2023-04-03T08:47:14;2.85;;;1.40;;
28774;SDS011;15926;51.348;6.596;2023-04-03T08:49:44;3.15;;;0.85;;
28774;SDS011;15926;51.348;6.596;2023-04-03T08:52:13;3.53;;;0.88;;
28774;SDS011;15926;51.348;6.596;2023-04-03T08:55:02;3.70;;;1.10;;
28774;SDS011;15926;51.348;6.596;2023-04-03T08:57:35;3.72;;;1.08;;
28774;SDS011;15926;51.348;6.596;2023-04-03T09:02:43;3.13;;;0.77;;
28774;SDS011;15926;51.348;6.596;2023-04-03T09:05:17;3.30;;;1.48;;
28774;SDS011;15926;51.348;6.596;2023-04-03T09:07:45;1.40;;;1.30;;
28774;SDS011;15926;51.348;6.596;2023-04-03T09:10:14;1.13;;;0.80;;
28774;SDS011;15926;51.348;6.596;2023-04-03T09:12:49;3.20;;;0.95;;
28774;SDS011;15926;51.348;6.596;2023-04-03T09:15:21;1.27;;;0.93;;
28774;SDS011;15926;51.348;6.596;2023-04-03T09:18:02;2.55;;;0.85;;
28774;SDS011;15926;51.348;6.596;2023-04-03T09:20:42;4.22;;;1.20;;
28774;SDS011;15926;51.348;6.596;2023-04-03T09:23:15;1.85;;;0.88;;
28774;SDS011;15926;51.348;6.596;2023-04-03T09:25:42;4.05;;;0.80;;
28774;SDS011;15926;51.348;6.596;2023-04-03T09:28:09;3.25;;;1.40;;
28774;SDS011;15926;51.348;6.596;2023-04-03T09:30:35;4.20;;;1.20;;
28774;SDS011;15926;51.348;6.596;2023-04-03T09:33:02;2.42;;;1.27;;
28774;SDS011;15926;51.348;6.596;2023-04-03T09:35:30;1.50;;;0.80;;
28774;SDS011;15926;51.348;6.596;2023-04-03T09:42:53;2.35;;;0.80;;
28774;SDS011;15926;51.348;6.596;2023-04-03T09:45:21;1.67;;;0.73;;
28774;SDS011;15926;51.348;6.596;2023-04-03T09:47:48;2.67;;;0.70;;
28774;SDS011;15926;51.348;6.596;2023-04-03T09:50:21;2.13;;;0.73;;
28774;SDS011;15926;51.348;6.596;2023-04-03T09:52:49;1.05;;;0.60;;
28774;SDS011;15926;51.348;6.596;2023-04-03T09:57:43;1.40;;;0.60;;
28774;SDS011;15926;51.348;6.596;2023-04-03T10:00:20;1.70;;;0.60;;
28774;SDS011;15926;51.348;6.596;2023-04-03T10:02:48;2.55;;;0.73;;
28774;SDS011;15926;51.348;6.596;2023-04-03T10:08:07;1.60;;;0.82;;
28774;SDS011;15926;51.348;6.596;2023-04-03T10:10:33;1.20;;;0.82;;
28774;SDS011;15926;51.348;6.596;2023-04-03T10:13:15;1.88;;;1.00;;
28774;SDS011;15926;51.348;6.596;2023-04-03T10:15:50;0.88;;;0.70;;
28774;SDS011;15926;51.348;6.596;2023-04-03T10:20:44;1.45;;;0.93;;
28774;SDS011;15926;51.348;6.596;2023-04-03T10:23:23;1.65;;;1.08;;
28774;SDS011;15926;51.348;6.596;2023-04-03T10:38:34;2.50;;;0.80;;
28774;SDS011;15926;51.348;6.596;2023-04-03T10:41:15;1.38;;;0.80;;
28774;SDS011;15926;51.348;6.596;2023-04-03T10:43:49;1.23;;;0.70;;
28774;SDS011;15926;51.348;6.596;2023-04-03T10:46:24;1.33;;;0.43;;
28774;SDS011;15926;51.348;6.596;2023-04-03T10:51:24;0.70;;;0.70;;
28774;SDS011;15926;51.348;6.596;2023-04-03T10:53:56;1.30;;;1.15;;
28774;SDS011;15926;51.348;6.596;2023-04-03T11:01:33;3.08;;;0.88;;
28774;SDS011;15926;51.348;6.596;2023-04-03T11:04:03;0.88;;;0.73;;
28774;SDS011;15926;51.348;6.596;2023-04-03T11:07:06;2.33;;;0.80;;
28774;SDS011;15926;51.348;6.596;2023-04-03T11:09:24;2.33;;;0.70;;
28774;SDS011;15926;51.348;6.596;2023-04-03T11:11:53;1.65;;;0.95;;
28774;SDS011;15926;51.348;6.596;2023-04-03T11:16:47;2.70;;;0.85;;
28774;SDS011;15926;51.348;6.596;2023-04-03T11:19:20;1.38;;;0.93;;
28774;SDS011;15926;51.348;6.596;2023-04-03T11:22:03;2.13;;;0.80;;
28774;SDS011;15926;51.348;6.596;2023-04-03T11:24:31;1.05;;;0.90;;
28774;SDS011;15926;51.348;6.596;2023-04-03T11:26:58;1.80;;;0.90;;
28774;SDS011;15926;51.348;6.596;2023-04-03T11:29:30;4.53;;;1.00;;
28774;SDS011;15926;51.348;6.596;2023-04-03T11:32:09;1.38;;;0.82;;
28774;SDS011;15926;51.348;6.596;2023-04-03T11:39:50;1.42;;;0.98;;
28774;SDS011;15926;51.348;6.596;2023-04-03T11:42:25;2.22;;;1.10;;
28774;SDS011;15926;51.348;6.596;2023-04-03T11:47:48;2.38;;;0.80;;
28774;SDS011;15926;51.348;6.596;2023-04-03T11:50:30;1.55;;;0.93;;
28774;SDS011;15926;51.348;6.596;2023-04-03T11:52:57;3.60;;;0.85;;
28774;SDS011;15926;51.348;6.596;2023-04-03T12:05:54;1.37;;;0.87;;
28774;SDS011;15926;51.348;6.596;2023-04-03T12:08:25;1.83;;;1.20;;
28774;SDS011;15926;51.348;6.596;2023-04-03T12:13:40;3.30;;;1.50;;
28774;SDS011;15926;51.348;6.596;2023-04-03T12:16:20;1.50;;;1.40;;
28774;SDS011;15926;51.348;6.596;2023-04-03T12:23:56;1.10;;;1.00;;
28774;SDS011;15926;51.348;6.596;2023-04-03T12:26:26;2.00;;;0.70;;
28774;SDS011;15926;51.348;6.596;2023-04-03T12:28:53;1.73;;;0.90;;
28774;SDS011;15926;51.348;6.596;2023-04-03T12:31:20;1.88;;;0.80;;
28774;SDS011;15926;51.348;6.596;2023-04-03T12:36:35;2.35;;;1.08;;
28774;SDS011;15926;51.348;6.596;2023-04-03T12:39:18;3.13;;;1.35;;
28774;SDS011;15926;51.348;6.596;2023-04-03T12:44:43;1.52;;;1.00;;
28774;SDS011;15926;51.348;6.596;2023-04-03T12:47:33;5.15;;;1.17;;
28774;SDS011;15926;51.348;6.596;2023-04-03T12:49:58;1.35;;;0.95;;
28774;SDS011;15926;51.348;6.596;2023-04-03T12:55:16;1.85;;;1.00;;
28774;SDS011;15926;51.348;6.596;2023-04-03T12:57:43;2.33;;;1.67;;
28774;SDS011;15926;51.348;6.596;2023-04-03T13:00:25;2.50;;;1.83;;
28774;SDS011;15926;51.348;6.596;2023-04-03T13:02:52;2.92;;;1.13;;
28774;SDS011;15926;51.348;6.596;2023-04-03T13:05:19;1.10;;;1.00;;
28774;SDS011;15926;51.348;6.596;2023-04-03T13:07:48;2.90;;;1.00;;
28774;SDS011;15926;51.348;6.596;2023-04-03T13:10:16;1.00;;;0.82;;
28774;SDS011;15926;51.348;6.596;2023-04-03T13:15:48;1.40;;;1.30;;
28774;SDS011;15926;51.348;6.596;2023-04-03T13:18:22;0.80;;;0.80;;
28774;SDS011;15926;51.348;6.596;2023-04-03T13:20:48;1.70;;;1.00;;
28774;SDS011;15926;51.348;6.596;2023-04-03T13:23:15;1.63;;;0.75;;
28774;SDS011;15926;51.348;6.596;2023-04-03T13:25:43;5.93;;;1.20;;
28774;SDS011;15926;51.348;6.596;2023-04-03T13:28:11;2.20;;;0.90;;
28774;SDS011;15926;51.348;6.596;2023-04-03T13:30:39;2.30;;;1.10;;
28774;SDS011;15926;51.348;6.596;2023-04-03T13:33:17;1.33;;;1.00;;
28774;SDS011;15926;51.348;6.596;2023-04-03T13:35:44;1.40;;;1.17;;
28774;SDS011;15926;51.348;6.596;2023-04-03T13:38:31;2.60;;;0.90;;
28774;SDS011;15926;51.348;6.596;2023-04-03T13:40:58;1.98;;;1.00;;
28774;SDS011;15926;51.348;6.596;2023-04-03T13:43:33;3.05;;;0.80;;
28774;SDS011;15926;51.348;6.596;2023-04-03T13:48:45;1.45;;;0.80;;
28774;SDS011;15926;51.348;6.596;2023-04-03T13:54:21;3.08;;;0.93;;
28774;SDS011;15926;51.348;6.596;2023-04-03T13:56:31;1.90;;;1.05;;
28774;SDS011;15926;51.348;6.596;2023-04-03T13:59:21;4.25;;;1.20;;
28774;SDS011;15926;51.348;6.596;2023-04-03T14:06:56;1.40;;;1.30;;
28774;SDS011;15926;51.348;6.596;2023-04-03T14:09:22;2.83;;;0.85;;
28774;SDS011;15926;51.348;6.596;2023-04-03T14:11:49;2.15;;;0.98;;
28774;SDS011;15926;51.348;6.596;2023-04-03T14:14:20;1.80;;;0.75;;
28774;SDS011;15926;51.348;6.596;2023-04-03T14:16:49;4.18;;;1.10;;
28774;SDS011;15926;51.348;6.596;2023-04-03T14:19:23;3.03;;;1.00;;
28774;SDS011;15926;51.348;6.596;2023-04-03T14:21:50;4.03;;;1.42;;
28774;SDS011;15926;51.348;6.596;2023-04-03T14:24:17;4.03;;;1.20;;
28774;SDS011;15926;51.348;6.596;2023-04-03T14:26:44;3.95;;;0.95;;
28774;SDS011;15926;51.348;6.596;2023-04-03T14:29:10;1.48;;;1.10;;
28774;SDS011;15926;51.348;6.596;2023-04-03T14:31:37;3.88;;;1.30;;
28774;SDS011;15926;51.348;6.596;2023-04-03T14:34:03;2.65;;;1.73;;
28774;SDS011;15926;51.348;6.596;2023-04-03T14:36:29;1.45;;;0.93;;
28774;SDS011;15926;51.348;6.596;2023-04-03T14:38:56;2.15;;;1.15;;
28774;SDS011;15926;51.348;6.596;2023-04-03T14:41:23;6.72;;;1.13;;
28774;SDS011;15926;51.348;6.596;2023-04-03T14:43:50;3.05;;;1.20;;
28774;SDS011;15926;51.348;6.596;2023-04-03T14:46:17;2.78;;;1.08;;
28774;SDS011;15926;51.348;6.596;2023-04-03T14:48:44;1.38;;;0.90;;
28774;SDS011;15926;51.348;6.596;2023-04-03T14:51:11;4.47;;;1.20;;
28774;SDS011;15926;51.348;6.596;2023-04-03T14:53:37;2.38;;;0.98;;
28774;SDS011;15926;51.348;6.596;2023-04-03T14:56:26;1.67;;;0.93;;
28774;SDS011;15926;51.348;6.596;2023-04-03T14:58:52;1.27;;;0.90;;
28774;SDS011;15926;51.348;6.596;2023-04-03T15:01:19;1.95;;;0.80;;
28774;SDS011;15926;51.348;6.596;2023-04-03T15:03:46;3.50;;;0.75;;
28774;SDS011;15926;51.348;6.596;2023-04-03T15:06:12;1.88;;;0.77;;
28774;SDS011;15926;51.348;6.596;2023-04-03T15:08:39;1.00;;;0.90;;
28774;SDS011;15926;51.348;6.596;2023-04-03T15:11:07;1.95;;;0.95;;
28774;SDS011;15926;51.348;6.596;2023-04-03T15:13:33;4.32;;;1.05;;
28774;SDS011;15926;51.348;6.596;2023-04-03T15:15:59;2.13;;;0.90;;
28774;SDS011;15926;51.348;6.596;2023-04-03T15:18:26;2.45;;;0.80;;
28774;SDS011;15926;51.348;6.596;2023-04-03T15:20:53;2.30;;;0.93;;
28774;SDS011;15926;51.348;6.596;2023-04-03T15:23:20;1.58;;;0.70;;
28774;SDS011;15926;51.348;6.596;2023-04-03T15:25:51;1.92;;;0.80;;
28774;SDS011;15926;51.348;6.596;2023-04-03T15:28:28;2.08;;;0.90;;
28774;SDS011;15926;51.348;6.596;2023-04-03T15:30:54;1.50;;;1.20;;
28774;SDS011;15926;51.348;6.596;2023-04-03T15:33:20;3.03;;;0.90;;
28774;SDS011;15926;51.348;6.596;2023-04-03T15:35:46;1.60;;;1.23;;
28774;SDS011;15926;51.348;6.596;2023-04-03T15:38:12;3.55;;;1.58;;
28774;SDS011;15926;51.348;6.596;2023-04-03T15:40:38;1.95;;;0.88;;
28774;SDS011;15926;51.348;6.596;2023-04-03T15:43:05;1.75;;;0.80;;
28774;SDS011;15926;51.348;6.596;2023-04-03T15:45:31;3.08;;;0.70;;
28774;SDS011;15926;51.348;6.596;2023-04-03T15:47:58;3.38;;;1.30;;
28774;SDS011;15926;51.348;6.596;2023-04-03T15:50:25;6.55;;;1.30;;
28774;SDS011;15926;51.348;6.596;2023-04-03T15:52:51;2.75;;;0.82;;
28774;SDS011;15926;51.348;6.596;2023-04-03T15:55:23;2.25;;;0.80;;
28774;SDS011;15926;51.348;6.596;2023-04-03T15:57:49;3.10;;;0.95;;
28774;SDS011;15926;51.348;6.596;2023-04-03T16:00:16;2.97;;;1.55;;
28774;SDS011;15926;51.348;6.596;2023-04-03T16:02:42;3.67;;;1.20;;
28774;SDS011;15926;51.348;6.596;2023-04-03T16:05:09;2.35;;;1.05;;
28774;SDS011;15926;51.348;6.596;2023-04-03T16:07:37;1.75;;;1.13;;
28774;SDS011;15926;51.348;6.596;2023-04-03T16:10:03;1.17;;;0.70;;
28774;SDS011;15926;51.348;6.596;2023-04-03T16:12:30;3.28;;;0.98;;
28774;SDS011;15926;51.348;6.596;2023-04-03T16:14:56;1.65;;;0.90;;
28774;SDS011;15926;51.348;6.596;2023-04-03T16:17:22;1.75;;;0.85;;
28774;SDS011;15926;51.348;6.596;2023-04-03T16:19:48;0.95;;;0.70;;
28774;SDS011;15926;51.348;6.596;2023-04-03T16:22:14;1.13;;;0.75;;
28774;SDS011;15926;51.348;6.596;2023-04-03T16:24:40;1.35;;;1.10;;
28774;SDS011;15926;51.348;6.596;2023-04-03T16:27:06;2.10;;;1.02;;
28774;SDS011;15926;51.348;6.596;2023-04-03T16:29:32;3.42;;;1.33;;
28774;SDS011;15926;51.348;6.596;2023-04-03T16:31:58;2.25;;;0.95;;